Time;durP1;ratioP1;P1;durP2;ratioP2;P2;SDS_P1;SDS_P2;PMS_P1;PMS_P2;Temp;Humidity;BMP_temperature;BMP_pressure;BME280_temperature;BME280_humidity;BME280_pressure;Samples;Min_cycle;Max_cycle;Signal;HPM_P1;HPM_P2
2022/01/24 00:00:40;;;;;;;2.35;2.13;;;18.40;30.60;;;;;;5065546;28;46918;-21
2022/01/24 00:03:07;;;;;;;2.47;2.28;;;18.30;30.50;;;;;;5065685;28;46853;-21
2022/01/24 00:05:34;;;;;;;2.78;2.17;;;18.30;30.50;;;;;;5065302;28;47069;-21
2022/01/24 00:08:01;;;;;;;2.35;2.13;;;18.30;30.50;;;;;;5064828;28;46759;-21
2022/01/24 00:10:30;;;;;;;1.90;1.70;;;18.30;30.60;;;;;;5065418;28;46748;-21
2022/01/24 00:13:18;;;;;;;2.30;2.10;;;18.30;30.60;;;;;;5065207;28;47116;-21
2022/01/24 00:15:54;;;;;;;2.70;2.30;;;18.30;30.60;;;;;;5065110;28;49071;-21
2022/01/24 00:18:34;;;;;;;2.10;1.90;;;18.30;30.60;;;;;;5064748;28;46766;-21
2022/01/24 00:26:46;;;;;;;2.25;2.05;;;18.30;30.60;;;;;;5062286;28;47394;-21
2022/01/24 00:29:14;;;;;;;2.33;1.98;;;18.30;30.60;;;;;;5064692;28;46816;-21
2022/01/24 00:31:40;;;;;;;2.00;1.85;;;18.30;30.50;;;;;;5065117;28;46904;-21
2022/01/24 00:34:07;;;;;;;1.80;1.70;;;18.30;30.50;;;;;;5064848;28;47287;-21
2022/01/24 00:36:35;;;;;;;2.95;1.90;;;18.30;30.50;;;;;;5064847;28;47820;-21
2022/01/24 00:39:01;;;;;;;2.75;2.03;;;18.30;30.50;;;;;;5064969;28;47232;-20
2022/01/24 00:41:28;;;;;;;1.70;1.60;;;18.30;30.50;;;;;;5065031;28;46889;-21
2022/01/24 00:44:16;;;;;;;2.42;1.92;;;18.30;30.50;;;;;;5064944;28;46985;-21
2022/01/24 00:46:49;;;;;;;2.40;1.90;;;18.30;30.50;;;;;;5064733;28;49315;-21
2022/01/24 00:49:37;;;;;;;2.17;2.03;;;18.30;30.50;;;;;;5064375;28;46981;-20
2022/01/24 00:54:52;;;;;;;2.08;1.88;;;18.30;30.50;;;;;;5064751;28;46848;-14
2022/01/24 00:57:18;;;;;;;2.25;2.05;;;18.30;30.30;;;;;;5064722;28;48871;-13
2022/01/24 00:59:47;;;;;;;1.88;1.77;;;18.30;30.40;;;;;;5064136;28;47105;-14
2022/01/24 01:02:13;;;;;;;2.75;1.70;;;18.30;30.50;;;;;;5064479;28;46950;-14
2022/01/24 01:04:53;;;;;;;2.15;1.95;;;18.30;30.50;;;;;;5064525;28;46862;-13
2022/01/24 01:07:29;;;;;;;1.98;1.77;;;18.30;30.50;;;;;;5067284;28;48886;-14
2022/01/24 01:18:14;;;;;;;2.13;2.03;;;18.30;30.50;;;;;;5065368;28;47356;-13
2022/01/24 01:20:57;;;;;;;1.80;1.70;;;18.30;30.50;;;;;;5068234;28;46802;-13
2022/01/24 01:23:24;;;;;;;1.98;1.77;;;18.30;30.50;;;;;;5067641;28;46891;-14
2022/01/24 01:25:52;;;;;;;2.22;1.95;;;18.30;30.40;;;;;;5068092;28;46932;-15
2022/01/24 01:28:20;;;;;;;2.05;1.85;;;18.30;30.40;;;;;;5067417;28;48163;-14
2022/01/24 01:30:51;;;;;;;2.35;1.83;;;18.30;30.30;;;;;;5067726;28;46994;-14
2022/01/24 01:33:26;;;;;;;2.10;1.95;;;18.30;30.40;;;;;;5067392;28;46849;-13
2022/01/24 01:36:05;;;;;;;2.00;1.80;;;18.30;30.40;;;;;;5068108;28;47223;-14
2022/01/24 01:39:04;;;;;;;1.88;1.77;;;18.30;30.40;;;;;;5067605;28;47475;-20
2022/01/24 01:52:50;;;;;;;2.50;2.20;;;18.30;30.50;;;;;;5064546;28;46894;-21
2022/01/24 01:55:35;;;;;;;1.95;1.70;;;18.30;30.40;;;;;;5067503;28;46839;-21
2022/01/24 01:58:02;;;;;;;2.20;2.00;;;18.30;30.40;;;;;;5067476;28;46908;-21
2022/01/24 02:00:29;;;;;;;2.00;1.80;;;18.30;30.40;;;;;;5067079;28;48097;-20
2022/01/24 02:02:57;;;;;;;1.98;1.85;;;18.30;30.30;;;;;;5066963;28;47432;-21
2022/01/24 02:05:24;;;;;;;2.20;2.00;;;18.20;30.40;;;;;;5067312;28;46889;-20
2022/01/24 02:07:51;;;;;;;2.53;2.30;;;18.20;30.40;;;;;;5067072;28;47316;-20
2022/01/24 02:10:19;;;;;;;2.58;2.28;;;18.20;30.40;;;;;;5066926;28;48111;-20
2022/01/24 02:12:47;;;;;;;3.42;2.15;;;18.20;30.30;;;;;;5067093;28;46732;-21
2022/01/24 02:15:19;;;;;;;2.55;2.13;;;18.20;30.30;;;;;;5066968;28;46922;-20
2022/01/24 02:17:58;;;;;;;3.08;2.20;;;18.20;30.30;;;;;;5066986;28;46910;-21
2022/01/24 02:20:40;;;;;;;2.67;2.35;;;18.20;30.30;;;;;;5066753;28;46991;-21
2022/01/24 02:25:50;;;;;;;2.58;2.30;;;18.20;30.30;;;;;;5063888;28;47272;-14
2022/01/24 02:28:19;;;;;;;3.35;1.90;;;18.20;30.20;;;;;;5067022;28;47097;-13
2022/01/24 02:31:05;;;;;;;3.47;2.47;;;18.20;30.20;;;;;;5066902;28;47905;-14
2022/01/24 02:33:32;;;;;;;2.90;2.53;;;18.20;30.20;;;;;;5066165;28;47451;-14
2022/01/24 02:35:58;;;;;;;2.38;2.13;;;18.20;30.20;;;;;;5066880;28;46812;-13
2022/01/24 02:38:38;;;;;;;3.88;3.00;;;18.20;30.20;;;;;;5066622;28;47144;-14
2022/01/24 02:49:22;;;;;;;3.20;2.47;;;18.20;30.10;;;;;;5066106;28;46806;-14
2022/01/24 02:51:48;;;;;;;3.65;2.63;;;18.20;30.20;;;;;;5066163;28;48675;-14
2022/01/24 02:54:20;;;;;;;2.85;2.30;;;18.10;30.10;;;;;;5066406;28;47362;-14
2022/01/24 02:56:47;;;;;;;2.92;2.45;;;18.10;30.10;;;;;;5066447;28;47014;-21
2022/01/24 02:59:14;;;;;;;2.38;2.17;;;18.20;30.20;;;;;;5066530;28;47140;-21
2022/01/24 03:01:41;;;;;;;2.58;2.30;;;18.20;30.20;;;;;;5066571;28;46838;-20
2022/01/24 03:04:08;;;;;;;2.40;2.20;;;18.20;30.20;;;;;;5066040;28;46949;-20
2022/01/24 03:06:35;;;;;;;2.30;2.00;;;18.20;30.10;;;;;;5066126;28;46937;-20
2022/01/24 03:09:01;;;;;;;2.30;2.10;;;18.20;30.10;;;;;;5066636;28;46935;-20
2022/01/24 03:11:51;;;;;;;2.38;2.17;;;18.10;30.10;;;;;;5066213;28;48851;-21
2022/01/24 03:14:16;;;;;;;2.92;2.17;;;18.10;30.10;;;;;;5065634;28;47084;-21
2022/01/24 03:16:43;;;;;;;3.08;2.15;;;18.20;30.10;;;;;;5065911;28;46909;-21
2022/01/24 03:19:09;;;;;;;2.35;2.10;;;18.20;30.10;;;;;;5065839;28;46850;-20
2022/01/24 03:21:36;;;;;;;3.45;2.42;;;18.20;30.10;;;;;;5066077;28;48119;-21
2022/01/24 03:24:03;;;;;;;2.50;2.03;;;18.20;30.10;;;;;;5065881;28;47460;-14
2022/01/24 03:26:31;;;;;;;2.80;2.22;;;18.10;30.00;;;;;;5065880;28;46847;-14
2022/01/24 03:28:58;;;;;;;3.00;2.13;;;18.10;30.00;;;;;;5065182;28;46924;-14
2022/01/24 03:31:25;;;;;;;2.50;2.30;;;18.10;30.00;;;;;;5066092;28;48892;-14
2022/01/24 03:33:52;;;;;;;3.42;2.55;;;18.10;30.00;;;;;;5065479;28;46753;-14
2022/01/24 03:36:19;;;;;;;3.00;2.10;;;18.10;30.00;;;;;;5065968;28;46891;-14
2022/01/24 03:38:45;;;;;;;2.20;2.00;;;18.10;30.00;;;;;;5065705;28;47014;-14
2022/01/24 03:41:12;;;;;;;2.47;2.28;;;18.10;30.00;;;;;;5065747;28;48119;-13
2022/01/24 03:43:40;;;;;;;2.30;2.00;;;18.10;30.00;;;;;;5065342;28;47017;-14
2022/01/24 03:46:13;;;;;;;2.10;1.90;;;18.10;30.00;;;;;;5065685;28;46856;-13
2022/01/24 03:48:44;;;;;;;2.83;2.53;;;18.10;30.00;;;;;;5065771;28;46854;-14
2022/01/24 03:51:10;;;;;;;2.80;2.47;;;18.10;30.00;;;;;;5065429;28;48781;-14
2022/01/24 03:53:37;;;;;;;2.67;1.92;;;18.20;30.50;;;;;;5065505;28;47296;-14
2022/01/24 03:56:04;;;;;;;2.38;2.13;;;18.10;30.00;;;;;;5065396;28;46847;-13
2022/01/24 03:58:31;;;;;;;3.63;2.22;;;18.10;30.00;;;;;;5065129;28;47132;-14
2022/01/24 04:00:59;;;;;;;2.42;2.20;;;18.10;29.90;;;;;;5065490;28;49058;-14
2022/01/24 04:03:26;;;;;;;2.30;2.03;;;18.10;30.00;;;;;;5065258;28;47017;-14
2022/01/24 04:05:53;;;;;;;2.33;2.13;;;18.10;30.00;;;;;;5065154;28;46919;-13
2022/01/24 04:08:19;;;;;;;2.63;2.40;;;18.10;30.00;;;;;;5065423;28;46918;-14
2022/01/24 04:10:50;;;;;;;3.10;2.30;;;18.10;30.00;;;;;;5065331;28;47894;-14
2022/01/24 04:13:28;;;;;;;2.40;2.20;;;18.10;30.00;;;;;;5065268;28;46910;-14
2022/01/24 04:16:11;;;;;;;2.45;2.22;;;18.10;30.00;;;;;;5065512;28;46945;-13
2022/01/24 04:18:48;;;;;;;2.20;2.00;;;18.00;30.00;;;;;;5065041;28;47075;-14
2022/01/24 04:21:23;;;;;;;2.38;2.17;;;18.10;30.00;;;;;;5065221;28;48123;-14
2022/01/24 04:23:54;;;;;;;2.78;2.25;;;18.10;30.00;;;;;;5064738;28;46850;-13
2022/01/24 04:26:21;;;;;;;2.45;2.10;;;18.10;29.90;;;;;;5065285;28;46865;-14
2022/01/24 04:28:48;;;;;;;2.60;2.40;;;18.00;29.90;;;;;;5065082;28;46850;-14
2022/01/24 04:31:14;;;;;;;2.58;2.30;;;18.00;29.90;;;;;;5064765;28;46883;-13
2022/01/24 04:33:42;;;;;;;2.15;1.90;;;18.00;29.90;;;;;;5064297;28;46886;-13
2022/01/24 04:36:09;;;;;;;2.50;1.98;;;18.00;29.90;;;;;;5065294;28;46877;-14
2022/01/24 04:38:36;;;;;;;2.13;1.90;;;18.10;29.90;;;;;;5064586;28;47014;-14
2022/01/24 04:41:07;;;;;;;2.45;2.10;;;18.10;29.90;;;;;;5065885;28;48037;-13
2022/01/24 04:43:49;;;;;;;2.33;2.13;;;18.00;29.80;;;;;;5068158;28;46894;-14
2022/01/24 04:46:30;;;;;;;2.88;2.30;;;18.00;29.90;;;;;;5068574;28;46882;-13
2022/01/24 04:51:55;;;;;;;3.08;2.33;;;18.00;29.90;;;;;;5065540;28;46892;-15
2022/01/24 04:56:57;;;;;;;2.45;2.03;;;18.00;29.80;;;;;;5065798;28;47002;-14
2022/01/24 04:59:23;;;;;;;2.10;1.90;;;18.00;29.90;;;;;;5068314;28;46740;-13
2022/01/24 05:01:50;;;;;;;3.40;2.33;;;18.00;29.90;;;;;;5067882;28;48124;-14
2022/01/24 05:04:18;;;;;;;2.28;2.10;;;17.90;29.90;;;;;;5067902;28;46855;-13
2022/01/24 05:06:45;;;;;;;1.88;1.73;;;18.00;29.90;;;;;;5068252;28;46820;-21
2022/01/24 05:09:11;;;;;;;3.20;2.17;;;18.00;29.90;;;;;;5067817;28;47900;-21
2022/01/24 05:11:45;;;;;;;3.25;2.53;;;18.00;29.90;;;;;;5067974;28;47873;-21
2022/01/24 05:25:09;;;;;;;2.20;2.00;;;18.00;29.90;;;;;;5065084;28;46964;-21
2022/01/24 05:27:36;;;;;;;2.35;2.10;;;18.00;29.90;;;;;;5067866;28;46811;-21
2022/01/24 05:30:02;;;;;;;2.60;1.83;;;18.00;29.90;;;;;;5067766;28;46929;-21
2022/01/24 05:32:29;;;;;;;2.42;2.00;;;18.00;29.90;;;;;;5067768;28;46827;-21
2022/01/24 05:34:57;;;;;;;2.10;1.88;;;18.00;29.90;;;;;;5066628;28;47025;-21
2022/01/24 05:37:24;;;;;;;1.88;1.77;;;18.00;29.90;;;;;;5066418;28;46908;-20
2022/01/24 05:39:50;;;;;;;2.30;2.10;;;18.00;29.80;;;;;;5066264;28;47437;-21
2022/01/24 05:42:21;;;;;;;2.20;2.00;;;18.00;29.80;;;;;;5066535;28;46930;-14
2022/01/24 05:44:48;;;;;;;2.38;1.95;;;18.00;29.80;;;;;;5066718;28;46834;-14
2022/01/24 05:47:14;;;;;;;2.47;2.00;;;18.00;29.80;;;;;;5066210;28;46978;-14
2022/01/24 05:49:41;;;;;;;2.65;2.22;;;17.90;29.80;;;;;;5066111;28;46880;-13
2022/01/24 05:52:10;;;;;;;2.58;2.35;;;17.90;29.70;;;;;;5065908;28;49029;-13
2022/01/24 05:54:37;;;;;;;2.25;2.05;;;18.00;29.80;;;;;;5066010;28;47435;-14
2022/01/24 05:57:04;;;;;;;2.80;2.38;;;18.00;29.80;;;;;;5066388;28;46947;-13
2022/01/24 05:59:31;;;;;;;2.53;2.03;;;18.00;29.80;;;;;;5066134;28;46893;-14
2022/01/24 06:01:58;;;;;;;3.13;2.60;;;17.90;29.70;;;;;;5066179;28;47934;-14
2022/01/24 06:04:24;;;;;;;3.17;2.35;;;17.90;29.70;;;;;;5065691;28;46845;-14
2022/01/24 06:06:51;;;;;;;3.20;2.35;;;17.90;29.70;;;;;;5066208;28;46865;-13
2022/01/24 06:09:19;;;;;;;3.28;2.45;;;17.90;29.70;;;;;;5065979;28;46830;-14
2022/01/24 06:11:46;;;;;;;2.78;2.58;;;17.90;29.70;;;;;;5065643;28;47855;-14
2022/01/24 06:14:13;;;;;;;2.40;2.20;;;17.90;29.60;;;;;;5065791;28;46794;-16
2022/01/24 06:16:40;;;;;;;2.83;2.40;;;17.90;29.70;;;;;;5065951;28;46931;-14
2022/01/24 06:19:07;;;;;;;2.25;2.05;;;17.90;29.70;;;;;;5065760;28;46921;-15
2022/01/24 06:21:33;;;;;;;2.65;2.40;;;17.90;29.70;;;;;;5065722;28;48790;-13
2022/01/24 06:24:00;;;;;;;2.13;1.92;;;17.90;29.70;;;;;;5065586;28;46996;-14
2022/01/24 06:26:28;;;;;;;2.22;2.03;;;17.90;30.10;;;;;;5065723;28;46921;-14
2022/01/24 06:28:55;;;;;;;2.95;2.42;;;17.90;29.60;;;;;;5065554;28;47283;-13
2022/01/24 06:31:21;;;;;;;2.47;2.15;;;17.90;29.70;;;;;;5065608;28;47058;-13
2022/01/24 06:33:49;;;;;;;2.42;2.15;;;17.90;29.70;;;;;;5026576;28;1103677;-14
2022/01/24 06:36:15;;;;;;;2.33;2.10;;;17.90;29.70;;;;;;5066775;28;46909;-20
2022/01/24 06:38:42;;;;;;;2.80;2.30;;;17.90;29.70;;;;;;5066616;28;47265;-21
2022/01/24 06:41:09;;;;;;;2.17;1.98;;;17.90;29.70;;;;;;5066234;28;48867;-21
2022/01/24 06:43:37;;;;;;;2.55;2.20;;;17.90;29.70;;;;;;5066341;28;47205;-21
2022/01/24 06:46:03;;;;;;;2.38;2.17;;;17.90;29.70;;;;;;5067546;28;46878;-21
2022/01/24 06:48:30;;;;;;;2.97;2.30;;;17.90;29.70;;;;;;5064730;28;47151;-21
2022/01/24 06:50:57;;;;;;;2.75;2.08;;;17.90;30.10;;;;;;5065400;28;46978;-21
2022/01/24 06:53:23;;;;;;;2.40;2.20;;;17.90;29.70;;;;;;5066282;28;47006;-21
2022/01/24 06:55:52;;;;;;;2.25;2.05;;;17.90;29.70;;;;;;5071171;28;47020;-21
2022/01/24 06:58:19;;;;;;;3.03;2.38;;;17.90;29.60;;;;;;5085708;27;46972;-22
2022/01/24 07:00:47;;;;;;;2.70;2.38;;;17.90;29.70;;;;;;5071980;28;48591;-22
2022/01/24 07:03:14;;;;;;;2.38;2.17;;;17.80;29.70;;;;;;5065535;28;47413;-21
2022/01/24 07:05:41;;;;;;;2.75;2.17;;;17.80;29.70;;;;;;5065836;28;47014;-21
2022/01/24 07:08:08;;;;;;;2.35;1.90;;;17.80;29.70;;;;;;5071217;28;47198;-22
2022/01/24 07:10:35;;;;;;;3.03;2.38;;;17.90;29.70;;;;;;5072550;28;48074;-21
2022/01/24 07:13:03;;;;;;;2.25;2.03;;;17.90;29.50;;;;;;5075824;28;47111;-22
2022/01/24 07:15:34;;;;;;;2.33;2.13;;;17.90;29.60;;;;;;5078237;28;46957;-22
2022/01/24 07:20:58;;;;;;;2.50;2.17;;;17.80;29.60;;;;;;5040191;28;47928;-22
2022/01/24 07:23:24;;;;;;;2.55;2.15;;;17.90;29.60;;;;;;5065352;28;46937;-22
2022/01/24 07:25:51;;;;;;;2.50;2.25;;;17.90;29.60;;;;;;5065934;28;46798;-21
2022/01/24 07:28:18;;;;;;;2.55;2.25;;;17.90;29.60;;;;;;5065760;28;47083;-22
2022/01/24 07:30:45;;;;;;;2.75;2.40;;;17.90;29.60;;;;;;5065525;28;47969;-21
2022/01/24 07:33:14;;;;;;;3.17;2.47;;;17.90;29.60;;;;;;5064565;28;46961;-21
2022/01/24 07:35:40;;;;;;;2.30;2.05;;;17.90;29.60;;;;;;5064169;28;46902;-21
2022/01/24 07:38:07;;;;;;;3.17;2.60;;;17.90;29.60;;;;;;5065256;28;46937;-21
2022/01/24 07:40:38;;;;;;;2.42;2.22;;;18.00;29.50;;;;;;5065142;28;48759;-21
2022/01/24 07:43:10;;;;;;;2.67;2.45;;;17.90;29.50;;;;;;5065214;28;46838;-21
2022/01/24 07:45:37;;;;;;;2.72;2.53;;;17.90;29.50;;;;;;5065633;28;46874;-21
2022/01/24 07:48:05;;;;;;;2.78;2.47;;;17.90;29.60;;;;;;5065429;28;46907;-21
2022/01/24 07:50:35;;;;;;;2.88;2.58;;;17.90;29.50;;;;;;5065303;28;46832;-21
2022/01/24 07:53:02;;;;;;;2.60;2.40;;;18.00;29.50;;;;;;5065561;28;47581;-21
2022/01/24 07:55:29;;;;;;;3.05;2.30;;;18.00;29.50;;;;;;5065541;28;46928;-21
2022/01/24 07:57:56;;;;;;;3.05;2.35;;;17.90;29.50;;;;;;5065184;28;46901;-21
2022/01/24 08:00:23;;;;;;;2.50;2.30;;;17.90;29.50;;;;;;5065189;28;48864;-21
2022/01/24 08:02:50;;;;;;;2.53;2.17;;;17.90;29.60;;;;;;5065288;28;47052;-21
2022/01/24 08:05:16;;;;;;;2.70;2.50;;;18.00;29.50;;;;;;5065390;28;46963;-14
2022/01/24 08:07:44;;;;;;;4.20;2.60;;;18.00;29.50;;;;;;5065025;28;46915;-14
2022/01/24 08:10:11;;;;;;;3.00;2.50;;;18.00;29.40;;;;;;5064687;28;48101;-14
2022/01/24 08:12:39;;;;;;;3.60;2.88;;;18.00;29.40;;;;;;5065145;28;46901;-14
2022/01/24 08:15:08;;;;;;;3.63;2.42;;;18.00;29.50;;;;;;5064884;28;46970;-14
2022/01/24 08:17:35;;;;;;;3.40;2.65;;;18.00;29.50;;;;;;5065273;28;46878;-13
2022/01/24 08:20:02;;;;;;;3.13;2.55;;;18.00;29.50;;;;;;5064856;28;48236;-14
2022/01/24 08:22:28;;;;;;;2.83;2.60;;;18.00;29.50;;;;;;5065017;28;46995;-13
2022/01/24 08:24:56;;;;;;;3.17;2.88;;;18.00;29.50;;;;;;5064763;28;47076;-14
2022/01/24 08:27:25;;;;;;;4.97;3.33;;;18.00;29.40;;;;;;5065201;28;47220;-14
2022/01/24 08:29:52;;;;;;;6.03;4.05;;;18.00;29.40;;;;;;5064685;28;47953;-12
2022/01/24 08:32:19;;;;;;;7.65;5.40;;;18.00;29.40;;;;;;5064985;28;46814;-12
2022/01/24 08:34:46;;;;;;;7.47;6.22;;;18.10;29.00;;;;;;5064359;28;46971;-12
2022/01/24 08:37:13;;;;;;;6.80;6.15;;;18.20;28.70;;;;;;5064441;28;46986;-13
2022/01/24 08:39:39;;;;;;;6.65;5.55;;;18.20;28.70;;;;;;5062755;28;49118;-13
2022/01/24 08:42:15;;;;;;;6.88;6.18;;;18.10;28.70;;;;;;5062902;28;47145;-13
2022/01/24 08:47:35;;;;;;;7.93;6.05;;;18.10;28.80;;;;;;5014879;28;47263;-20
2022/01/24 08:50:02;;;;;;;6.22;5.25;;;18.10;29.00;;;;;;5064163;28;48813;-20
2022/01/24 08:52:28;;;;;;;7.03;5.65;;;18.10;29.10;;;;;;5064541;28;46962;-20
2022/01/24 08:54:55;;;;;;;6.15;5.55;;;18.10;29.10;;;;;;5064441;28;46813;-21
2022/01/24 08:57:25;;;;;;;6.97;5.32;;;18.10;29.10;;;;;;5065158;28;47296;-21
2022/01/24 08:59:52;;;;;;;6.35;5.72;;;18.10;29.50;;;;;;5064360;28;47988;-19
2022/01/24 09:02:19;;;;;;;7.13;4.97;;;18.10;29.00;;;;;;5064574;28;46756;-21
2022/01/24 09:04:46;;;;;;;6.38;5.68;;;18.10;29.00;;;;;;5063876;28;46949;-21
2022/01/24 09:07:16;;;;;;;5.95;5.35;;;18.20;29.10;;;;;;5063842;28;47321;-22
2022/01/24 09:09:43;;;;;;;6.15;5.15;;;18.20;29.40;;;;;;5063660;28;48230;-22
2022/01/24 09:12:12;;;;;;;7.18;5.13;;;18.20;29.30;;;;;;5064180;28;46806;-21
2022/01/24 09:14:41;;;;;;;6.32;4.50;;;18.30;29.50;;;;;;5064111;28;46933;-21
2022/01/24 09:17:07;;;;;;;8.32;4.82;;;18.30;29.50;;;;;;5064366;28;46911;-21
2022/01/24 09:19:34;;;;;;;5.72;4.55;;;18.30;29.60;;;;;;5070348;28;47834;-21
2022/01/24 09:22:01;;;;;;;6.78;4.68;;;18.30;29.60;;;;;;5084692;28;46934;-21
2022/01/24 09:24:28;;;;;;;5.88;3.95;;;18.30;29.60;;;;;;5084572;28;47082;-21
2022/01/24 09:26:54;;;;;;;4.50;3.90;;;18.40;29.60;;;;;;5085390;27;47269;-20
2022/01/24 09:29:21;;;;;;;4.55;4.07;;;18.40;29.60;;;;;;5087988;28;47806;-20
2022/01/24 09:31:49;;;;;;;7.13;3.92;;;18.50;29.60;;;;;;5088096;28;46979;-21
2022/01/24 09:34:16;;;;;;;5.43;4.28;;;18.50;29.70;;;;;;5087936;28;46978;-21
2022/01/24 09:36:42;;;;;;;4.35;3.85;;;18.50;29.80;;;;;;5088216;28;46850;-21
2022/01/24 09:39:09;;;;;;;5.32;3.97;;;18.50;29.70;;;;;;5087693;28;49050;-21
2022/01/24 09:41:36;;;;;;;5.90;3.92;;;18.60;29.60;;;;;;5087879;28;47587;-20
2022/01/24 09:44:02;;;;;;;4.53;3.83;;;18.60;29.60;;;;;;5087903;28;46983;-21
2022/01/24 09:46:29;;;;;;;8.50;3.95;;;18.60;29.60;;;;;;5087724;28;46809;-20
2022/01/24 09:48:57;;;;;;;5.88;3.92;;;18.60;29.60;;;;;;5087583;28;46900;-21
2022/01/24 09:51:24;;;;;;;5.85;4.43;;;18.60;29.60;;;;;;5087549;28;47112;-21
2022/01/24 09:53:51;;;;;;;5.13;4.28;;;18.60;29.60;;;;;;5087589;28;46987;-21
2022/01/24 09:56:18;;;;;;;4.32;3.90;;;18.70;29.70;;;;;;5087736;28;46946;-21
2022/01/24 09:58:45;;;;;;;4.85;4.13;;;18.70;29.60;;;;;;5087449;28;49041;-21
2022/01/24 10:01:13;;;;;;;5.97;4.00;;;18.70;29.60;;;;;;5087621;28;47062;-21
2022/01/24 10:03:39;;;;;;;9.23;4.47;;;18.70;29.60;;;;;;5087181;28;47087;-21
2022/01/24 10:06:07;;;;;;;8.38;4.65;;;18.80;29.60;;;;;;5087670;28;47251;-20
2022/01/24 10:08:35;;;;;;;4.68;4.10;;;18.80;29.30;;;;;;5087355;28;47062;-21
2022/01/24 10:11:04;;;;;;;5.00;4.25;;;18.80;29.50;;;;;;5087220;28;46976;-20
2022/01/24 10:16:26;;;;;;;5.35;4.07;;;18.70;29.60;;;;;;5084865;28;46958;-22
2022/01/24 10:19:17;;;;;;;7.10;4.35;;;18.80;29.70;;;;;;5086988;28;48929;-21
2022/01/24 10:21:47;;;;;;;5.22;4.22;;;18.80;29.70;;;;;;5086857;28;46953;-22
2022/01/24 10:24:29;;;;;;;5.40;4.88;;;18.80;29.70;;;;;;5087151;28;46971;-21
2022/01/24 10:27:08;;;;;;;5.68;4.85;;;18.80;29.60;;;;;;5087138;28;47064;-21
2022/01/24 10:29:35;;;;;;;4.90;4.20;;;18.80;29.60;;;;;;5085952;28;48798;-20
2022/01/24 10:32:02;;;;;;;6.18;3.92;;;18.80;29.70;;;;;;5086874;28;47361;-21
2022/01/24 10:34:35;;;;;;;5.47;4.22;;;18.80;29.70;;;;;;5086774;28;46795;-20
2022/01/24 10:37:04;;;;;;;5.22;4.20;;;18.90;29.70;;;;;;5087551;28;47034;-21
2022/01/24 10:39:33;;;;;;;4.78;4.10;;;18.90;29.70;;;;;;5085197;28;48130;-21
2022/01/24 10:45:14;;;;;;;4.18;3.78;;;19.00;29.70;;;;;;5021486;28;46997;-20
2022/01/24 10:47:45;;;;;;;5.28;3.67;;;19.00;29.70;;;;;;5066653;27;46830;-21
2022/01/24 10:50:12;;;;;;;4.43;3.92;;;19.00;29.70;;;;;;5066389;28;48870;-21
2022/01/24 10:52:40;;;;;;;5.22;4.10;;;19.00;29.70;;;;;;5066258;28;46759;-21
2022/01/24 10:55:14;;;;;;;5.13;3.58;;;19.00;30.20;;;;;;5066418;28;46904;-21
2022/01/24 10:57:41;;;;;;;6.00;3.42;;;19.10;29.70;;;;;;5073755;28;46886;-21
2022/01/24 11:00:10;;;;;;;3.95;3.55;;;19.10;29.70;;;;;;5075355;28;48281;-21
2022/01/24 11:02:40;;;;;;;4.45;3.50;;;19.10;29.70;;;;;;5074308;27;47429;-21
2022/01/24 11:05:11;;;;;;;3.97;3.58;;;19.10;29.70;;;;;;5075875;27;46888;-20
2022/01/24 11:07:49;;;;;;;3.40;3.10;;;19.20;29.70;;;;;;5077464;28;47027;-21
2022/01/24 11:10:16;;;;;;;3.83;3.42;;;19.10;29.80;;;;;;5074929;28;46934;-21
2022/01/24 11:12:43;;;;;;;3.90;3.50;;;19.20;29.80;;;;;;5076345;28;46922;-21
2022/01/24 11:15:10;;;;;;;4.65;3.35;;;19.20;29.80;;;;;;5076727;28;47078;-22
2022/01/24 11:17:37;;;;;;;3.90;3.50;;;19.20;29.80;;;;;;5077021;28;47169;-20
2022/01/24 11:20:04;;;;;;;3.90;3.33;;;19.30;29.80;;;;;;5073309;28;47043;-22
2022/01/24 11:22:34;;;;;;;4.30;3.85;;;19.30;29.70;;;;;;5073526;28;46959;-22
2022/01/24 11:25:06;;;;;;;3.83;3.33;;;19.30;29.60;;;;;;5073410;28;46937;-22
2022/01/24 11:27:33;;;;;;;3.90;3.50;;;19.40;29.70;;;;;;5073826;28;46956;-20
2022/01/24 11:30:02;;;;;;;5.05;3.63;;;19.40;29.80;;;;;;5073228;28;47890;-21
2022/01/24 11:32:29;;;;;;;4.13;3.72;;;19.40;29.80;;;;;;5075053;28;47410;-22
2022/01/24 11:34:57;;;;;;;4.15;3.45;;;19.40;30.10;;;;;;5075299;28;47091;-22
2022/01/24 11:37:36;;;;;;;3.78;3.38;;;19.40;29.70;;;;;;5073693;28;47027;-21
2022/01/24 11:40:05;;;;;;;3.75;3.25;;;19.50;29.50;;;;;;5073446;28;48877;-22
2022/01/24 11:42:34;;;;;;;3.88;3.38;;;19.50;29.60;;;;;;5074549;28;47085;-22
2022/01/24 11:45:05;;;;;;;5.10;3.17;;;19.60;29.60;;;;;;5075700;28;46918;-22
2022/01/24 11:47:32;;;;;;;3.92;3.50;;;19.60;29.60;;;;;;5075070;28;46917;-22
2022/01/24 11:49:59;;;;;;;3.63;3.25;;;19.70;29.70;;;;;;5072787;27;48233;-21
2022/01/24 11:52:30;;;;;;;3.50;3.17;;;19.60;29.60;;;;;;5073785;28;46926;-21
2022/01/24 11:55:06;;;;;;;3.97;3.47;;;19.60;29.60;;;;;;5073280;28;47128;-21
2022/01/24 11:57:38;;;;;;;3.50;3.20;;;19.60;29.60;;;;;;5064545;28;46957;-22
2022/01/24 12:00:20;;;;;;;3.50;3.20;;;19.70;29.70;;;;;;5072819;28;48247;-13
2022/01/24 12:02:49;;;;;;;3.92;3.50;;;19.70;29.60;;;;;;5073453;28;46901;-13
2022/01/24 12:05:16;;;;;;;3.75;3.00;;;19.80;29.50;;;;;;5073938;28;46907;-13
2022/01/24 12:07:44;;;;;;;4.28;3.45;;;19.80;29.50;;;;;;5075545;28;47104;-14
2022/01/24 12:10:41;;;;;;;3.50;3.13;;;19.80;29.60;;;;;;5074110;28;46916;-13
2022/01/24 12:13:14;;;;;;;3.40;3.10;;;19.90;29.60;;;;;;5073808;28;46772;-13
2022/01/24 12:16:02;;;;;;;3.97;2.97;;;19.90;29.60;;;;;;5072971;28;47112;-13
2022/01/24 12:18:52;;;;;;;3.20;2.90;;;19.80;29.70;;;;;;5072361;28;47139;-14
2022/01/24 12:21:23;;;;;;;3.42;3.08;;;19.80;29.70;;;;;;5075767;27;47056;-13
2022/01/24 12:23:51;;;;;;;3.55;3.15;;;19.80;29.30;;;;;;5065393;28;47049;-14
2022/01/24 12:26:26;;;;;;;3.33;3.03;;;19.80;29.80;;;;;;5075338;28;46988;-14
2022/01/24 12:28:58;;;;;;;4.53;3.13;;;19.80;29.80;;;;;;5074165;28;47054;-14
2022/01/24 12:31:28;;;;;;;3.42;3.13;;;19.80;29.80;;;;;;5072353;28;48116;-14
2022/01/24 12:34:00;;;;;;;4.00;3.10;;;19.80;29.50;;;;;;5073385;28;46878;-14
2022/01/24 12:36:51;;;;;;;3.42;3.00;;;19.90;29.70;;;;;;5073388;28;46808;-14
2022/01/24 12:39:21;;;;;;;3.97;3.58;;;19.90;29.80;;;;;;5075368;28;46962;-14
2022/01/24 12:41:51;;;;;;;3.25;2.70;;;20.00;29.80;;;;;;5071829;28;47955;-13
2022/01/24 12:47:06;;;;;;;3.63;3.10;;;20.10;29.70;;;;;;5080835;28;47107;-14
2022/01/24 12:49:33;;;;;;;3.10;2.78;;;20.10;29.70;;;;;;5084137;28;46886;-14
2022/01/24 12:52:00;;;;;;;2.63;2.42;;;20.10;29.70;;;;;;5085214;28;48234;-14
2022/01/24 12:54:29;;;;;;;2.80;2.55;;;20.20;29.60;;;;;;5084926;28;47028;-13
2022/01/24 12:56:58;;;;;;;3.15;2.70;;;20.10;29.60;;;;;;5084918;28;46759;-14
2022/01/24 12:59:26;;;;;;;3.08;2.88;;;20.20;29.70;;;;;;5085067;28;47297;-14
2022/01/24 13:01:56;;;;;;;5.00;2.88;;;20.20;29.70;;;;;;5085511;27;48156;-14
2022/01/24 13:04:31;;;;;;;3.30;3.00;;;20.20;29.70;;;;;;5088453;28;46921;-14
2022/01/24 13:06:58;;;;;;;3.60;3.08;;;20.10;29.70;;;;;;5088858;28;46815;-14
2022/01/24 13:09:25;;;;;;;3.85;3.05;;;20.20;29.70;;;;;;5088544;28;47292;-13
2022/01/24 13:11:53;;;;;;;3.15;2.85;;;20.20;29.80;;;;;;5088263;28;49134;-14
2022/01/24 13:14:24;;;;;;;2.97;2.75;;;20.10;29.80;;;;;;5088075;28;46904;-13
2022/01/24 13:22:29;;;;;;;2.72;2.35;;;19.90;30.00;;;;;;5083630;28;46996;-14
2022/01/24 13:25:03;;;;;;;3.30;3.00;;;19.80;30.30;;;;;;5086353;28;46898;-13
2022/01/24 13:27:37;;;;;;;3.55;2.92;;;19.70;30.60;;;;;;5086746;28;46960;-13
2022/01/24 13:30:05;;;;;;;2.72;2.50;;;19.50;30.70;;;;;;5087125;28;46908;-13
2022/01/24 13:32:47;;;;;;;3.10;2.80;;;19.50;31.00;;;;;;5086850;28;48368;-14
2022/01/24 13:35:16;;;;;;;2.80;2.60;;;19.30;31.00;;;;;;5087410;28;47010;-13
2022/01/24 13:37:43;;;;;;;2.67;2.47;;;19.40;31.30;;;;;;5088225;28;46908;-13
2022/01/24 13:40:10;;;;;;;2.88;2.67;;;19.30;31.30;;;;;;5088298;28;46922;-13
2022/01/24 13:42:37;;;;;;;2.85;2.65;;;19.30;31.30;;;;;;5087614;27;47919;-13
2022/01/24 13:45:04;;;;;;;2.60;2.40;;;19.30;31.40;;;;;;5088051;28;46976;-13
2022/01/24 13:47:31;;;;;;;2.95;2.75;;;19.30;31.40;;;;;;5088017;28;46844;-13
2022/01/24 13:49:59;;;;;;;3.13;2.75;;;19.30;31.50;;;;;;5088326;28;47282;-14
2022/01/24 13:52:26;;;;;;;2.80;2.55;;;19.30;31.50;;;;;;5087690;28;49111;-15
2022/01/24 13:54:53;;;;;;;2.47;2.28;;;19.30;31.60;;;;;;5087529;28;47032;-13
2022/01/24 13:57:20;;;;;;;3.10;2.50;;;19.20;31.60;;;;;;5087868;28;46872;-13
2022/01/24 13:59:47;;;;;;;3.10;2.40;;;19.20;31.60;;;;;;5087630;28;46810;-13
2022/01/24 14:02:15;;;;;;;2.72;2.53;;;19.20;31.70;;;;;;5087716;28;47937;-14
2022/01/24 14:04:43;;;;;;;2.70;2.50;;;19.10;31.80;;;;;;5087380;28;47389;-13
2022/01/24 14:07:12;;;;;;;2.55;2.35;;;19.10;31.90;;;;;;5087474;28;46830;-13
2022/01/24 14:09:41;;;;;;;2.78;2.42;;;19.10;32.00;;;;;;5087745;28;46934;-13
2022/01/24 14:12:10;;;;;;;3.03;2.70;;;19.00;32.10;;;;;;5087238;28;46914;-13
2022/01/24 14:14:46;;;;;;;2.65;2.45;;;19.00;32.10;;;;;;5087010;27;46856;-13